createdAt,value
2023-11-28T00:00:32.505Z,8.73
2023-11-28T00:02:59.354Z,7.43
2023-11-28T00:05:26.588Z,6.63
2023-11-28T00:07:53.299Z,6.53
2023-11-28T00:10:20.121Z,5.63
2023-11-28T00:12:46.796Z,5.13
2023-11-28T00:15:13.517Z,5.20
2023-11-28T00:17:40.427Z,3.85
2023-11-28T00:20:08.009Z,4.00
2023-11-28T00:22:34.710Z,4.50
2023-11-28T00:25:01.487Z,4.00
2023-11-28T00:27:28.224Z,4.75
2023-11-28T00:29:54.904Z,3.85
2023-11-28T00:32:21.868Z,3.80
2023-11-28T00:34:48.623Z,3.60
2023-11-28T00:37:15.577Z,3.50
2023-11-28T00:39:42.235Z,2.97
2023-11-28T00:42:09.123Z,3.33
2023-11-28T00:44:35.962Z,3.22
2023-11-28T00:47:03.028Z,3.95
2023-11-28T00:49:29.884Z,2.92
2023-11-28T00:51:56.618Z,4.05
2023-11-28T00:54:23.984Z,3.05
2023-11-28T00:56:51.733Z,2.88
2023-11-28T00:59:27.787Z,3.28
2023-11-28T01:02:06.295Z,2.50
2023-11-28T01:04:34.326Z,2.15
2023-11-28T01:07:01.379Z,3.08
2023-11-28T01:09:28.147Z,2.50
2023-11-28T01:11:54.878Z,2.88
2023-11-28T01:14:21.707Z,2.50
2023-11-28T01:16:48.768Z,2.40
2023-11-28T01:19:15.640Z,2.50
2023-11-28T01:21:42.710Z,2.20
2023-11-28T01:24:09.413Z,1.80
2023-11-28T01:26:37.125Z,2.10
2023-11-28T01:29:04.940Z,1.80
2023-11-28T01:31:32.121Z,1.88
2023-11-28T01:33:58.955Z,1.67
2023-11-28T01:36:25.665Z,1.80
2023-11-28T01:38:52.360Z,1.23
2023-11-28T01:41:19.134Z,1.80
2023-11-28T01:43:45.905Z,1.80
2023-11-28T01:46:12.650Z,1.77
2023-11-28T01:48:39.444Z,1.80
2023-11-28T01:51:06.860Z,1.60
2023-11-28T01:53:33.561Z,1.63
2023-11-28T01:56:01.527Z,1.90
2023-11-28T01:58:28.816Z,2.05
2023-11-28T02:00:55.540Z,1.77
2023-11-28T02:03:22.482Z,1.83
2023-11-28T02:05:49.266Z,2.00
2023-11-28T02:08:15.947Z,2.00
2023-11-28T02:10:42.763Z,1.80
2023-11-28T02:13:11.940Z,1.80
2023-11-28T02:15:40.033Z,2.05
2023-11-28T02:18:06.786Z,2.03
2023-11-28T02:20:33.497Z,1.83
2023-11-28T02:23:00.430Z,1.90
2023-11-28T02:25:27.363Z,1.90
2023-11-28T02:27:54.010Z,1.80
2023-11-28T02:30:20.728Z,1.65
2023-11-28T02:32:47.694Z,1.80
2023-11-28T02:35:20.925Z,1.70
2023-11-28T02:37:50.164Z,1.70
2023-11-28T02:40:16.892Z,1.65
2023-11-28T02:42:43.524Z,1.70
2023-11-28T02:45:10.581Z,1.60
2023-11-28T02:47:37.564Z,1.52
2023-11-28T02:50:04.653Z,1.42
2023-11-28T02:52:31.473Z,1.42
2023-11-28T02:54:58.279Z,1.60
2023-11-28T02:57:25.055Z,1.30
2023-11-28T02:59:51.853Z,1.23
2023-11-28T03:02:18.820Z,1.10
2023-11-28T03:04:45.778Z,1.00
2023-11-28T03:07:12.487Z,0.70
2023-11-28T03:09:39.187Z,0.80
2023-11-28T03:12:06.011Z,0.70
2023-11-28T03:14:33.194Z,0.70
2023-11-28T03:16:59.987Z,0.77
2023-11-28T03:19:27.630Z,0.70
2023-11-28T03:21:54.436Z,0.60
2023-11-28T03:24:21.525Z,0.88
2023-11-28T03:26:48.236Z,0.65
2023-11-28T03:29:15.166Z,0.70
2023-11-28T03:31:41.999Z,0.70
2023-11-28T03:34:08.750Z,0.70
2023-11-28T03:36:35.387Z,0.75
2023-11-28T03:39:02.186Z,0.70
2023-11-28T03:41:28.931Z,2.15
2023-11-28T03:43:55.682Z,0.70
2023-11-28T03:46:22.459Z,0.80
2023-11-28T03:48:49.280Z,0.90
2023-11-28T03:51:15.979Z,0.70
2023-11-28T03:53:42.935Z,1.05
2023-11-28T03:56:10.128Z,2.85
2023-11-28T03:58:37.422Z,0.70
2023-11-28T04:01:04.445Z,0.82
2023-11-28T04:03:31.166Z,0.73
2023-11-28T04:05:57.936Z,0.80
2023-11-28T04:08:24.940Z,0.80
2023-11-28T04:10:52.054Z,0.77
2023-11-28T04:13:18.762Z,0.80
2023-11-28T04:15:45.587Z,1.23
2023-11-28T04:18:12.398Z,0.70
2023-11-28T04:20:39.296Z,1.00
2023-11-28T04:23:06.922Z,1.02
2023-11-28T04:25:33.625Z,0.90
2023-11-28T04:28:00.345Z,1.00
2023-11-28T04:30:27.209Z,1.20
2023-11-28T04:32:54.215Z,1.52
2023-11-28T04:35:21.055Z,1.00
2023-11-28T04:37:47.822Z,1.48
2023-11-28T04:40:14.562Z,1.70
2023-11-28T04:42:41.335Z,1.63
2023-11-28T04:45:11.101Z,1.98
2023-11-28T04:47:38.177Z,1.38
2023-11-28T04:50:06.696Z,1.80
2023-11-28T04:52:33.474Z,2.08
2023-11-28T04:55:00.220Z,1.60
2023-11-28T04:57:26.978Z,1.30
2023-11-28T04:59:53.689Z,1.20
2023-11-28T05:02:20.755Z,1.35
2023-11-28T05:04:47.641Z,1.30
2023-11-28T05:07:16.991Z,1.60
2023-11-28T05:09:43.704Z,1.20
2023-11-28T05:12:10.418Z,1.20
2023-11-28T05:14:37.392Z,2.42
2023-11-28T05:17:05.792Z,1.60
2023-11-28T05:19:33.338Z,1.40
2023-11-28T05:22:00.277Z,1.17
2023-11-28T05:24:27.091Z,1.60
2023-11-28T05:26:53.924Z,1.73
2023-11-28T05:29:21.208Z,1.63
2023-11-28T05:31:48.028Z,2.75
2023-11-28T05:34:14.819Z,1.65
2023-11-28T05:36:41.516Z,2.55
2023-11-28T05:39:09.450Z,2.28
2023-11-28T05:41:36.276Z,1.52
2023-11-28T05:44:05.230Z,1.73
2023-11-28T05:46:31.989Z,1.52
2023-11-28T05:48:58.884Z,2.15
2023-11-28T05:51:26.618Z,1.70
2023-11-28T05:53:53.408Z,1.08
2023-11-28T05:56:20.135Z,1.73
2023-11-28T05:58:46.961Z,1.70
2023-11-28T06:01:16.041Z,1.40
2023-11-28T06:03:42.895Z,1.77
2023-11-28T06:06:09.922Z,1.60
2023-11-28T06:08:36.569Z,1.20
2023-11-28T06:11:03.449Z,1.67
2023-11-28T06:13:30.268Z,1.30
2023-11-28T06:15:59.014Z,1.52
2023-11-28T06:18:28.444Z,12.50
2023-11-28T06:20:55.110Z,1.30
2023-11-28T06:23:21.987Z,1.55
2023-11-28T06:25:48.721Z,1.63
2023-11-28T06:28:15.553Z,1.88
2023-11-28T06:30:42.234Z,2.08
2023-11-28T06:33:09.120Z,1.27
2023-11-28T06:35:36.422Z,3.78
2023-11-28T06:38:03.553Z,3.05
2023-11-28T06:40:30.392Z,1.63
2023-11-28T06:42:59.916Z,1.90
2023-11-28T06:45:26.739Z,1.15
2023-11-28T06:47:54.124Z,8.82
2023-11-28T06:50:21.583Z,2.42
2023-11-28T06:52:48.425Z,1.15
2023-11-28T06:55:16.413Z,6.53
2023-11-28T06:57:44.559Z,0.82
2023-11-28T07:00:19.375Z,1.20
2023-11-28T07:02:46.247Z,3.20
2023-11-28T07:05:13.191Z,1.58
2023-11-28T07:07:40.110Z,1.20
2023-11-28T07:10:09.659Z,3.33
2023-11-28T07:12:36.803Z,3.33
2023-11-28T07:15:05.148Z,2.33
2023-11-28T07:17:32.876Z,3.25
2023-11-28T07:19:59.701Z,3.05
2023-11-28T07:22:33.490Z,1.70
2023-11-28T07:25:01.892Z,1.98
2023-11-28T07:27:29.556Z,3.35
2023-11-28T07:29:56.772Z,5.30
2023-11-28T07:32:25.077Z,1.38
2023-11-28T07:34:51.987Z,3.47
2023-11-28T07:37:18.712Z,1.40
2023-11-28T07:39:45.858Z,1.58
2023-11-28T07:42:12.631Z,2.33
2023-11-28T07:44:40.727Z,3.92
2023-11-28T07:47:07.439Z,1.55
2023-11-28T07:49:34.147Z,1.40
2023-11-28T07:52:01.076Z,1.38
2023-11-28T07:54:28.295Z,1.50
2023-11-28T07:56:55.002Z,4.13
2023-11-28T07:59:21.912Z,1.52
2023-11-28T08:01:48.774Z,1.23
2023-11-28T08:04:15.949Z,1.48
2023-11-28T08:06:42.723Z,1.27
2023-11-28T08:09:09.656Z,3.53
2023-11-28T08:11:36.427Z,2.90
2023-11-28T08:14:03.513Z,1.60
2023-11-28T08:16:30.366Z,2.35
2023-11-28T08:18:57.139Z,8.23
2023-11-28T08:21:24.326Z,2.25
2023-11-28T08:23:51.065Z,1.27
2023-11-28T08:26:18.294Z,1.27
2023-11-28T08:28:45.625Z,1.92
2023-11-28T08:31:12.479Z,1.50
2023-11-28T08:33:39.289Z,4.75
2023-11-28T08:36:06.600Z,3.17
2023-11-28T08:38:33.469Z,2.00
2023-11-28T08:41:00.375Z,1.50
2023-11-28T08:43:27.240Z,1.75
2023-11-28T08:45:54.514Z,0.98
2023-11-28T08:48:21.470Z,1.80
2023-11-28T08:50:48.765Z,1.23
2023-11-28T08:53:15.547Z,1.30
2023-11-28T08:55:43.850Z,1.35
2023-11-28T08:58:10.849Z,2.38
2023-11-28T09:00:38.062Z,2.75
2023-11-28T09:03:05.268Z,3.17
2023-11-28T09:05:32.140Z,0.93
2023-11-28T09:07:58.982Z,1.00
2023-11-28T09:10:25.841Z,0.95
2023-11-28T09:12:52.731Z,6.30
2023-11-28T09:15:19.493Z,0.85
2023-11-28T09:17:46.477Z,1.23
2023-11-28T09:20:13.367Z,2.88
2023-11-28T09:22:41.450Z,1.10
2023-11-28T09:25:10.670Z,1.52
2023-11-28T09:27:37.500Z,1.00
2023-11-28T09:30:05.131Z,2.40
2023-11-28T09:32:32.216Z,0.90
2023-11-28T09:34:59.163Z,3.17
2023-11-28T09:37:26.840Z,0.95
2023-11-28T09:39:54.888Z,1.30
2023-11-28T09:42:22.976Z,6.47
2023-11-28T09:44:49.820Z,0.80
2023-11-28T09:47:18.437Z,1.10
2023-11-28T09:49:46.634Z,1.40
2023-11-28T09:52:14.943Z,1.70
2023-11-28T09:54:41.923Z,4.90
2023-11-28T09:57:10.474Z,2.88
2023-11-28T09:59:43.536Z,1.55
2023-11-28T10:02:13.304Z,1.38
2023-11-28T10:04:40.175Z,1.20
2023-11-28T10:07:07.558Z,1.52
2023-11-28T10:09:34.508Z,1.30
2023-11-28T10:12:01.368Z,2.00
2023-11-28T10:14:28.503Z,2.53
2023-11-28T10:16:55.417Z,1.20
2023-11-28T10:19:22.382Z,1.08
2023-11-28T10:21:50.173Z,2.17
2023-11-28T10:24:17.438Z,1.40
2023-11-28T10:26:44.337Z,1.52
2023-11-28T10:29:11.340Z,1.40
2023-11-28T10:31:39.192Z,1.58
2023-11-28T10:34:13.072Z,1.50
2023-11-28T10:36:43.551Z,1.35
2023-11-28T10:39:11.880Z,2.15
2023-11-28T10:41:39.775Z,0.90
2023-11-28T10:44:07.345Z,0.75
2023-11-28T10:46:35.884Z,0.60
2023-11-28T10:49:03.298Z,0.98
2023-11-28T10:51:30.663Z,1.05
2023-11-28T10:54:12.754Z,1.65
2023-11-28T10:59:35.040Z,10.40
2023-11-28T11:02:02.868Z,1.92
2023-11-28T11:04:29.840Z,1.50
2023-11-28T11:06:56.692Z,1.80
2023-11-28T11:09:24.551Z,1.80
2023-11-28T11:11:52.891Z,1.40
2023-11-28T11:14:46.007Z,1.33
2023-11-28T11:19:59.724Z,2.40
2023-11-28T11:22:29.658Z,1.95
2023-11-28T11:24:56.347Z,1.10
2023-11-28T11:27:23.307Z,1.92
2023-11-28T11:29:50.890Z,1.75
2023-11-28T11:32:19.302Z,1.42
2023-11-28T11:34:48.617Z,1.42
2023-11-28T11:39:52.236Z,1.25
2023-11-28T11:42:23.116Z,1.60
2023-11-28T11:44:52.479Z,2.80
2023-11-28T11:47:28.575Z,1.90
2023-11-28T11:49:58.061Z,1.92
2023-11-28T11:52:26.329Z,2.20
2023-11-28T11:54:53.853Z,2.13
2023-11-28T11:57:21.926Z,2.28
2023-11-28T11:59:48.547Z,1.85
2023-11-28T12:02:15.769Z,2.10
2023-11-28T12:04:43.378Z,1.77
2023-11-28T12:07:12.662Z,2.20
2023-11-28T12:09:39.895Z,1.80
2023-11-28T12:12:09.759Z,1.83
2023-11-28T12:14:37.451Z,3.97
2023-11-28T12:17:04.743Z,2.97
2023-11-28T12:19:31.958Z,3.33
2023-11-28T12:21:58.889Z,2.30
2023-11-28T12:24:25.968Z,2.10
2023-11-28T12:26:52.972Z,5.38
2023-11-28T12:29:19.768Z,2.20
2023-11-28T12:31:46.630Z,2.08
2023-11-28T12:34:13.430Z,1.92
2023-11-28T12:36:47.326Z,2.88
2023-11-28T12:39:15.840Z,2.45
2023-11-28T12:41:42.875Z,4.40
2023-11-28T12:44:11.196Z,2.25
2023-11-28T12:46:39.439Z,3.25
2023-11-28T12:49:06.858Z,2.80
2023-11-28T12:51:34.244Z,2.67
2023-11-28T12:54:08.595Z,3.05
2023-11-28T12:56:36.622Z,3.08
2023-11-28T12:59:04.179Z,3.05
2023-11-28T13:01:31.757Z,4.40
2023-11-28T13:04:00.509Z,2.13
2023-11-28T13:06:28.255Z,3.10
2023-11-28T13:08:55.512Z,3.80
2023-11-28T13:11:23.015Z,4.65
2023-11-28T13:13:50.297Z,2.42
2023-11-28T13:16:17.125Z,2.33
2023-11-28T13:18:44.566Z,3.17
2023-11-28T13:21:11.343Z,2.40
2023-11-28T13:23:38.130Z,2.25
2023-11-28T13:26:05.294Z,2.60
2023-11-28T13:28:32.196Z,4.60
2023-11-28T13:30:59.150Z,2.45
2023-11-28T13:33:27.299Z,3.13
2023-11-28T13:35:54.452Z,5.28
2023-11-28T13:38:22.821Z,2.58
2023-11-28T13:40:52.942Z,2.70
2023-11-28T13:43:20.316Z,2.17
2023-11-28T13:45:47.040Z,1.92
2023-11-28T13:48:13.788Z,2.90
2023-11-28T13:50:40.527Z,2.55
2023-11-28T13:53:08.512Z,2.55
2023-11-28T13:55:37.980Z,2.22
2023-11-28T13:58:05.132Z,2.20
2023-11-28T14:00:31.843Z,2.70
2023-11-28T14:02:59.352Z,2.30
2023-11-28T14:05:26.910Z,2.53
2023-11-28T14:07:53.849Z,2.50
2023-11-28T14:10:20.667Z,2.95
2023-11-28T14:12:47.920Z,2.95
2023-11-28T14:15:14.772Z,2.78
2023-11-28T14:17:42.019Z,3.30
2023-11-28T14:20:10.330Z,6.07
2023-11-28T14:22:37.333Z,3.00
2023-11-28T14:25:04.186Z,3.75
2023-11-28T14:27:31.249Z,2.78
2023-11-28T14:29:58.463Z,2.85
2023-11-28T14:32:32.336Z,3.55
2023-11-28T14:35:00.336Z,2.88
2023-11-28T14:37:28.066Z,3.47
2023-11-28T14:39:54.789Z,3.03
2023-11-28T14:42:21.438Z,2.50
2023-11-28T14:44:48.107Z,2.42
2023-11-28T14:47:14.869Z,2.47
2023-11-28T14:49:41.798Z,2.60
2023-11-28T14:52:08.788Z,2.97
2023-11-28T14:54:35.643Z,3.83
2023-11-28T14:57:02.437Z,2.22
2023-11-28T14:59:29.308Z,3.75
2023-11-28T15:01:56.323Z,3.25
2023-11-28T15:04:23.246Z,3.35
2023-11-28T15:06:51.826Z,2.90
2023-11-28T15:09:19.042Z,3.28
2023-11-28T15:11:45.933Z,3.50
2023-11-28T15:14:13.599Z,2.70
2023-11-28T15:16:40.335Z,3.35
2023-11-28T15:19:07.510Z,3.25
2023-11-28T15:21:34.185Z,4.10
2023-11-28T15:24:00.973Z,3.13
2023-11-28T15:26:28.065Z,3.30
2023-11-28T15:28:54.794Z,3.03
2023-11-28T15:31:21.516Z,2.95
2023-11-28T15:33:48.350Z,3.22
2023-11-28T15:36:15.353Z,3.67
2023-11-28T15:38:42.361Z,3.67
2023-11-28T15:41:09.549Z,2.40
2023-11-28T15:43:36.670Z,2.42
2023-11-28T15:46:04.196Z,20.77
2023-11-28T15:48:30.825Z,6.15
2023-11-28T15:50:57.509Z,3.00
2023-11-28T15:53:24.348Z,3.25
2023-11-28T15:55:51.194Z,3.55
2023-11-28T15:58:17.925Z,4.43
2023-11-28T16:00:44.765Z,3.13
2023-11-28T16:03:14.534Z,3.17
2023-11-28T16:05:42.510Z,4.53
2023-11-28T16:08:09.874Z,3.03
2023-11-28T16:10:36.718Z,3.70
2023-11-28T16:13:03.397Z,3.88
2023-11-28T16:15:30.298Z,3.10
2023-11-28T16:17:57.538Z,3.08
2023-11-28T16:20:24.312Z,3.13
2023-11-28T16:22:51.077Z,3.33
2023-11-28T16:25:17.753Z,3.42
2023-11-28T16:27:44.563Z,3.97
2023-11-28T16:30:12.126Z,4.35
2023-11-28T16:32:40.697Z,6.40
2023-11-28T16:35:08.712Z,4.80
2023-11-28T16:37:43.442Z,5.07
2023-11-28T16:40:11.629Z,4.28
2023-11-28T16:42:38.695Z,5.30
2023-11-28T16:45:05.889Z,4.47
2023-11-28T16:47:32.970Z,5.10
2023-11-28T16:49:59.816Z,5.75
2023-11-28T16:52:27.104Z,5.18
2023-11-28T16:54:53.861Z,5.90
2023-11-28T16:57:21.332Z,4.53
2023-11-28T16:59:48.155Z,5.38
2023-11-28T17:02:15.081Z,5.25
2023-11-28T17:04:42.176Z,5.43
2023-11-28T17:07:14.141Z,5.88
2023-11-28T17:09:40.817Z,6.35
2023-11-28T17:12:07.770Z,8.77
2023-11-28T17:14:34.506Z,5.93
2023-11-28T17:17:09.125Z,5.03
2023-11-28T17:19:35.867Z,6.57
2023-11-28T17:22:02.536Z,5.82
2023-11-28T17:24:29.920Z,5.57
2023-11-28T17:26:56.653Z,5.40
2023-11-28T17:29:23.380Z,5.35
2023-11-28T17:31:54.737Z,7.65
2023-11-28T17:34:22.271Z,5.20
2023-11-28T17:36:48.954Z,7.15
2023-11-28T17:39:15.732Z,5.72
2023-11-28T17:41:42.493Z,5.43
2023-11-28T17:44:09.343Z,6.18
2023-11-28T17:46:36.118Z,4.55
2023-11-28T17:49:02.835Z,6.55
2023-11-28T17:51:29.691Z,5.65
2023-11-28T17:53:57.590Z,4.97
2023-11-28T17:56:24.543Z,5.05
2023-11-28T17:58:51.390Z,5.68
2023-11-28T18:01:19.596Z,4.68
2023-11-28T18:03:46.411Z,4.75
2023-11-28T18:06:13.310Z,6.38
2023-11-28T18:08:40.052Z,5.28
2023-11-28T18:11:07.302Z,5.50
2023-11-28T18:13:34.347Z,6.55
2023-11-28T18:16:01.297Z,7.20
2023-11-28T18:18:28.157Z,7.70
2023-11-28T18:20:55.147Z,7.07
2023-11-28T18:23:25.121Z,7.05
2023-11-28T18:25:51.854Z,6.85
2023-11-28T18:28:18.557Z,7.32
2023-11-28T18:30:46.276Z,6.97
2023-11-28T18:33:12.985Z,8.25
2023-11-28T18:35:39.879Z,7.05
2023-11-28T18:38:07.873Z,7.30
2023-11-28T18:40:34.542Z,8.40
2023-11-28T18:43:03.321Z,8.20
2023-11-28T18:45:30.239Z,8.00
2023-11-28T18:47:57.590Z,7.63
2023-11-28T18:50:25.763Z,7.97
2023-11-28T18:52:53.262Z,6.75
2023-11-28T18:55:20.655Z,7.47
2023-11-28T18:57:47.442Z,8.57
2023-11-28T19:00:15.011Z,8.30
2023-11-28T19:02:41.921Z,8.23
2023-11-28T19:05:08.855Z,8.07
2023-11-28T19:07:36.072Z,8.00
2023-11-28T19:10:03.426Z,9.00
2023-11-28T19:12:30.244Z,8.82
2023-11-28T19:14:57.750Z,7.60
2023-11-28T19:17:24.508Z,8.27
2023-11-28T19:19:51.401Z,8.68
2023-11-28T19:22:18.143Z,8.85
2023-11-28T19:24:44.993Z,7.85
2023-11-28T19:27:11.781Z,6.90
2023-11-28T19:29:38.803Z,9.52
2023-11-28T19:32:06.015Z,8.00
2023-11-28T19:34:34.696Z,7.57
2023-11-28T19:37:02.191Z,10.07
2023-11-28T19:39:28.949Z,7.38
2023-11-28T19:41:55.997Z,8.18
2023-11-28T19:44:24.297Z,8.20
2023-11-28T19:46:51.245Z,8.02
2023-11-28T19:49:18.197Z,11.57
2023-11-28T19:51:46.541Z,9.90
2023-11-28T19:54:15.766Z,11.35
2023-11-28T19:56:43.482Z,11.20
2023-11-28T19:59:11.846Z,10.13
2023-11-28T20:01:39.470Z,11.25
2023-11-28T20:04:08.912Z,11.50
2023-11-28T20:06:35.909Z,9.75
2023-11-28T20:09:05.241Z,11.65
2023-11-28T20:11:33.190Z,11.77
2023-11-28T20:14:01.917Z,11.98
2023-11-28T20:16:29.159Z,11.88
2023-11-28T20:18:56.075Z,11.73
2023-11-28T20:21:23.084Z,13.65
2023-11-28T20:23:54.578Z,14.10
2023-11-28T20:26:21.722Z,9.53
2023-11-28T20:28:48.884Z,13.10
2023-11-28T20:31:16.677Z,13.02
2023-11-28T20:33:43.815Z,14.32
2023-11-28T20:36:10.615Z,14.82
2023-11-28T20:38:37.424Z,13.85
2023-11-28T20:41:04.721Z,17.13
2023-11-28T20:43:37.606Z,12.80
2023-11-28T20:46:04.787Z,14.63
2023-11-28T20:48:35.087Z,11.05
2023-11-28T20:51:02.024Z,14.20
2023-11-28T20:53:29.324Z,13.05
2023-11-28T20:55:56.312Z,12.30
2023-11-28T20:58:23.299Z,13.07
2023-11-28T21:00:50.326Z,11.93
2023-11-28T21:03:17.091Z,14.43
2023-11-28T21:05:45.788Z,8.18
2023-11-28T21:08:12.831Z,9.65
2023-11-28T21:10:39.843Z,11.60
2023-11-28T21:13:06.604Z,11.00
2023-11-28T21:15:33.826Z,11.93
2023-11-28T21:18:00.697Z,12.65
2023-11-28T21:20:27.632Z,10.38
2023-11-28T21:22:54.522Z,11.90
2023-11-28T21:25:26.732Z,11.68
2023-11-28T21:30:28.702Z,10.65
2023-11-28T21:32:55.471Z,11.07
2023-11-28T21:35:22.341Z,12.18
2023-11-28T21:37:52.814Z,11.30
2023-11-28T21:40:21.497Z,10.98
2023-11-28T21:42:48.312Z,11.30
2023-11-28T21:45:15.244Z,11.75
2023-11-28T21:47:42.552Z,11.02
2023-11-28T21:50:13.735Z,12.15
2023-11-28T21:52:43.168Z,9.15
2023-11-28T21:55:11.952Z,10.38
2023-11-28T21:57:39.708Z,11.13
2023-11-28T22:00:10.156Z,11.38
2023-11-28T22:02:36.958Z,12.77
2023-11-28T22:05:03.997Z,11.18
2023-11-28T22:07:31.150Z,11.95
2023-11-28T22:09:58.006Z,11.77
2023-11-28T22:12:24.741Z,12.52
2023-11-28T22:14:51.848Z,12.95
2023-11-28T22:17:18.823Z,12.63
2023-11-28T22:19:45.626Z,10.35
2023-11-28T22:22:12.387Z,11.02
2023-11-28T22:24:39.069Z,13.70
2023-11-28T22:27:05.784Z,11.68
2023-11-28T22:29:32.451Z,10.77
2023-11-28T22:32:00.684Z,13.98
2023-11-28T22:34:27.562Z,12.65
2023-11-28T22:36:54.279Z,10.32
2023-11-28T22:39:21.861Z,10.90
2023-11-28T22:41:49.115Z,12.23
2023-11-28T22:44:15.995Z,10.30
2023-11-28T22:46:42.701Z,8.95
2023-11-28T22:49:09.429Z,11.35
2023-11-28T22:51:36.322Z,10.27
2023-11-28T22:54:03.056Z,8.98
2023-11-28T22:56:31.284Z,9.57
2023-11-28T22:58:58.018Z,8.93
2023-11-28T23:01:24.746Z,8.98
2023-11-28T23:03:51.804Z,9.52
2023-11-28T23:06:18.971Z,9.18
2023-11-28T23:08:45.837Z,7.85
2023-11-28T23:11:13.613Z,8.95
2023-11-28T23:13:40.285Z,7.15
2023-11-28T23:16:08.069Z,7.65
2023-11-28T23:18:34.939Z,6.55
2023-11-28T23:21:02.368Z,8.38
2023-11-28T23:23:29.028Z,9.05
2023-11-28T23:25:55.793Z,9.43
2023-11-28T23:28:22.645Z,7.30
2023-11-28T23:30:49.451Z,8.35
2023-11-28T23:33:16.733Z,9.10
2023-11-28T23:35:43.512Z,8.07
2023-11-28T23:38:10.474Z,7.78
2023-11-28T23:40:37.201Z,8.25
2023-11-28T23:43:03.921Z,7.53
2023-11-28T23:45:30.685Z,7.68
2023-11-28T23:47:57.955Z,7.55
2023-11-28T23:50:24.866Z,8.90
2023-11-28T23:52:53.003Z,8.82
2023-11-28T23:55:19.801Z,9.02
2023-11-28T23:57:46.548Z,9.75
